Time;durP1;ratioP1;P1;durP2;ratioP2;P2;SDS_P1;SDS_P2;PMS_P1;PMS_P2;Temp;Humidity;BMP_temperature;BMP_pressure;BME280_temperature;BME280_humidity;BME280_pressure;Samples;Min_cycle;Max_cycle;Signal;HPM_P1;HPM_P2
2022/07/19 00:00:46;;;;;;;;;;;;;;;17.55;62.34;101545.72;5039268;28;20351;-83
2022/07/19 00:03:15;;;;;;;;;;;;;;;17.58;61.95;101542.63;5018364;28;20035;-82
2022/07/19 00:05:40;;;;;;;;;;;;;;;17.55;61.28;101535.69;5012515;28;20034;-83
2022/07/19 00:08:06;;;;;;;;;;;;;;;17.56;61.47;101531.94;4994618;28;19918;-84
2022/07/19 00:10:37;;;;;;;;;;;;;;;17.51;61.51;101535.22;5001068;28;19914;-81
2022/07/19 00:13:03;;;;;;;;;;;;;;;17.56;61.48;101539.25;5022750;28;19964;-83
2022/07/19 00:15:29;;;;;;;;;;;;;;;17.57;61.27;101541.78;5032121;28;19909;-81
2022/07/19 00:17:55;;;;;;;;;;;;;;;17.55;60.99;101537.56;5014190;28;19920;-82
2022/07/19 00:20:21;;;;;;;;;;;;;;;17.61;60.85;101534.13;5032741;28;19966;-82
2022/07/19 00:22:46;;;;;;;;;;;;;;;17.55;61.47;101541.13;4998659;28;20015;-81
2022/07/19 00:25:15;;;;;;;;;;;;;;;17.46;61.81;101532.19;5009991;28;19917;-81
2022/07/19 00:27:42;;;;;;;;;;;;;;;17.58;61.32;101542.63;5022699;28;19913;-82
2022/07/19 00:30:07;;;;;;;;;;;;;;;17.47;61.35;101539.34;5009891;28;19921;-82
2022/07/19 00:32:35;;;;;;;;;;;;;;;17.54;61.29;101544.88;4992544;28;19947;-82
2022/07/19 00:35:01;;;;;;;;;;;;;;;17.39;62.07;101536.69;5037024;28;19913;-82
2022/07/19 00:37:28;;;;;;;;;;;;;;;17.43;62.27;101535.28;5027083;28;19927;-81
2022/07/19 00:39:55;;;;;;;;;;;;;;;17.41;62.78;101540.06;5038133;28;19916;-84
2022/07/19 00:42:21;;;;;;;;;;;;;;;17.42;62.50;101536.34;5014910;28;19952;-82
2022/07/19 00:44:46;;;;;;;;;;;;;;;17.49;62.36;101547.31;5015704;28;19952;-83
2022/07/19 00:47:12;;;;;;;;;;;;;;;17.38;62.82;101535.00;5030370;28;19913;-82
2022/07/19 00:49:41;;;;;;;;;;;;;;;17.24;62.75;101538.53;5032141;28;19915;-83
2022/07/19 00:52:06;;;;;;;;;;;;;;;17.28;62.93;101535.28;5031037;28;20377;-84
2022/07/19 00:54:33;;;;;;;;;;;;;;;17.32;62.70;101535.72;5015572;28;19963;-82
2022/07/19 00:56:59;;;;;;;;;;;;;;;17.18;62.83;101534.66;5031661;28;19909;-83
2022/07/19 00:59:25;;;;;;;;;;;;;;;17.19;63.15;101530.94;4999582;28;19974;-83
2022/07/19 01:01:51;;;;;;;;;;;;;;;17.24;63.10;101527.66;5016581;28;19999;-85
2022/07/19 01:04:20;;;;;;;;;;;;;;;17.19;62.91;101530.94;5016071;28;19909;-83
2022/07/19 01:06:45;;;;;;;;;;;;;;;17.20;62.83;101527.19;5028365;28;19913;-83
2022/07/19 01:09:13;;;;;;;;;;;;;;;17.24;63.23;101523.06;5028795;28;19953;-82
2022/07/19 01:11:39;;;;;;;;;;;;;;;17.20;63.21;101529.06;5035454;28;20016;-83
2022/07/19 01:14:05;;;;;;;;;;;;;;;17.17;63.50;101530.28;5016573;28;20381;-82
2022/07/19 01:16:31;;;;;;;;;;;;;;;16.99;63.81;101525.16;5013419;28;19909;-82
2022/07/19 01:18:57;;;;;;;;;;;;;;;16.92;64.61;101526.91;5030350;28;19921;-83
2022/07/19 01:21:26;;;;;;;;;;;;;;;16.91;64.80;101524.38;5029275;28;19994;-83
2022/07/19 01:23:52;;;;;;;;;;;;;;;17.01;64.78;101523.09;5030026;28;19919;-87
2022/07/19 01:26:18;;;;;;;;;;;;;;;17.03;64.31;101521.03;5018795;28;19999;-82
2022/07/19 01:28:51;;;;;;;;;;;;;;;16.95;65.13;101522.97;5016048;28;19913;-82
2022/07/19 01:31:18;;;;;;;;;;;;;;;16.90;64.93;101517.25;5029946;28;20385;-82
2022/07/19 01:33:45;;;;;;;;;;;;;;;16.75;65.48;101522.59;5014086;28;20357;-83
2022/07/19 01:36:13;;;;;;;;;;;;;;;16.76;65.16;101518.84;5012271;28;20019;-82
2022/07/19 01:38:38;;;;;;;;;;;;;;;16.81;64.55;101521.88;4996671;28;19924;-82
2022/07/19 01:41:06;;;;;;;;;;;;;;;16.80;64.68;101518.34;5020263;28;20245;-81
2022/07/19 01:43:32;;;;;;;;;;;;;;;16.83;64.65;101515.28;5032102;28;19913;-82
2022/07/19 01:45:58;;;;;;;;;;;;;;;16.86;64.16;101524.94;5009170;28;19932;-82
2022/07/19 01:48:24;;;;;;;;;;;;;;;16.95;63.94;101521.13;4995379;28;19992;-82
2022/07/19 01:50:49;;;;;;;;;;;;;;;16.96;63.88;101514.66;5012319;28;20469;-81
2022/07/19 01:53:14;;;;;;;;;;;;;;;16.94;63.68;101522.13;4996238;28;20432;-82
2022/07/19 01:55:41;;;;;;;;;;;;;;;16.91;63.46;101517.06;5007191;28;20011;-81
2022/07/19 01:58:06;;;;;;;;;;;;;;;16.72;63.86;101518.38;5012589;28;19916;-82
2022/07/19 02:00:32;;;;;;;;;;;;;;;16.85;62.66;101520.50;5015951;28;19917;-82
2022/07/19 02:03:06;;;;;;;;;;;;;;;16.80;62.10;101514.78;4995719;28;19928;-82
2022/07/19 02:05:32;;;;;;;;;;;;;;;16.80;62.26;101510.19;5030173;28;19913;-81
2022/07/19 02:07:57;;;;;;;;;;;;;;;16.80;61.87;101506.63;5011039;28;19935;-82
2022/07/19 02:10:24;;;;;;;;;;;;;;;16.87;61.98;101513.88;5030772;28;19913;-81
2022/07/19 02:12:50;;;;;;;;;;;;;;;16.87;61.18;101515.75;5028882;28;20369;-81
2022/07/19 02:15:18;;;;;;;;;;;;;;;16.83;61.70;101515.28;4999635;28;19967;-82
2022/07/19 02:17:50;;;;;;;;;;;;;;;16.75;61.50;101520.72;5011514;28;19917;-81
2022/07/19 02:20:15;;;;;;;;;;;;;;;16.89;60.94;101508.25;5017290;28;20491;-82
2022/07/19 02:22:41;;;;;;;;;;;;;;;16.82;61.26;101518.16;5012407;28;20003;-82
2022/07/19 02:25:10;;;;;;;;;;;;;;;16.83;61.56;101514.41;5017314;28;19920;-81
2022/07/19 02:27:38;;;;;;;;;;;;;;;16.96;61.02;101513.81;5029690;28;19917;-81
2022/07/19 02:30:07;;;;;;;;;;;;;;;16.88;61.79;101512.84;5001014;28;19920;-80
2022/07/19 02:32:35;;;;;;;;;;;;;;;16.79;62.10;101511.22;4995027;28;20390;-81
2022/07/19 02:35:01;;;;;;;;;;;;;;;16.78;62.25;101522.22;5014736;28;19971;-81
2022/07/19 02:37:28;;;;;;;;;;;;;;;16.74;62.78;101519.03;5016547;28;20324;-82
2022/07/19 02:39:54;;;;;;;;;;;;;;;16.68;62.79;101517.03;5016851;28;20000;-82
2022/07/19 02:42:19;;;;;;;;;;;;;;;16.67;63.56;101521.63;5034567;28;19974;-81
2022/07/19 02:44:48;;;;;;;;;;;;;;;16.79;62.79;101515.81;5002672;28;20384;-82
2022/07/19 02:47:14;;;;;;;;;;;;;;;16.80;62.64;101521.06;5033514;28;20004;-83
2022/07/19 02:49:39;;;;;;;;;;;;;;;16.64;63.20;101530.13;5023660;28;20046;-81
2022/07/19 02:52:05;;;;;;;;;;;;;;;16.67;63.52;101529.78;5002013;28;20249;-82
2022/07/19 02:54:31;;;;;;;;;;;;;;;16.74;63.50;101534.47;5039760;28;19913;-81
2022/07/19 02:56:56;;;;;;;;;;;;;;;16.62;63.68;101529.47;5017717;28;19913;-81
2022/07/19 02:59:23;;;;;;;;;;;;;;;16.66;63.67;101528.06;5018060;28;20258;-84
2022/07/19 03:01:51;;;;;;;;;;;;;;;16.76;63.56;101529.72;5036202;28;19950;-83
2022/07/19 03:04:16;;;;;;;;;;;;;;;16.69;63.81;101532.28;5017003;28;19908;-82
2022/07/19 03:06:42;;;;;;;;;;;;;;;16.73;63.76;101530.06;5032680;28;20280;-80
2022/07/19 03:09:11;;;;;;;;;;;;;;;16.61;64.02;101530.47;5019989;28;19992;-85
2022/07/19 03:11:37;;;;;;;;;;;;;;;16.61;63.59;101533.19;5032553;28;19913;-81
2022/07/19 03:14:02;;;;;;;;;;;;;;;16.60;63.84;101536.09;5018433;28;20000;-84
2022/07/19 03:16:28;;;;;;;;;;;;;;;16.67;63.56;101534.38;5015071;28;19917;-83
2022/07/19 03:18:57;;;;;;;;;;;;;;;16.63;63.48;101535.75;5032985;28;19925;-82
2022/07/19 03:21:23;;;;;;;;;;;;;;;16.55;63.23;101533.94;5014931;28;20073;-82
2022/07/19 03:23:49;;;;;;;;;;;;;;;16.49;63.34;101536.50;4998683;28;20452;-82
2022/07/19 03:26:14;;;;;;;;;;;;;;;16.57;63.27;101537.28;5038903;28;19924;-81
2022/07/19 03:28:40;;;;;;;;;;;;;;;16.45;63.78;101541.44;5033706;28;20365;-81
2022/07/19 03:31:06;;;;;;;;;;;;;;;16.51;63.33;101535.31;5034973;28;19959;-80
2022/07/19 03:33:31;;;;;;;;;;;;;;;16.51;63.36;101540.75;5025716;28;20399;-82
2022/07/19 03:35:57;;;;;;;;;;;;;;;16.52;62.96;101534.28;5018940;28;19940;-81
2022/07/19 03:38:22;;;;;;;;;;;;;;;16.70;63.06;101530.44;5029755;28;19916;-81
2022/07/19 03:40:48;;;;;;;;;;;;;;;16.70;63.19;101525.03;5021795;28;20218;-81
2022/07/19 03:43:15;;;;;;;;;;;;;;;16.68;63.02;101534.16;5014036;28;20561;-82
2022/07/19 03:45:41;;;;;;;;;;;;;;;16.74;63.11;101537.19;5037761;28;19913;-82
2022/07/19 03:48:10;;;;;;;;;;;;;;;16.72;63.18;101534.66;5016065;28;19920;-82
2022/07/19 03:50:37;;;;;;;;;;;;;;;16.74;63.15;101537.19;5036302;28;19920;-81
2022/07/19 03:53:03;;;;;;;;;;;;;;;16.87;62.99;101537.47;5013335;28;20301;-81
2022/07/19 03:55:28;;;;;;;;;;;;;;;16.87;62.82;101530.16;5037637;28;19913;-82
2022/07/19 03:57:54;;;;;;;;;;;;;;;17.03;62.47;101531.91;5031736;28;20396;-82
2022/07/19 04:00:19;;;;;;;;;;;;;;;17.02;62.71;101537.50;5019113;28;19924;-83
2022/07/19 04:02:49;;;;;;;;;;;;;;;17.05;62.71;101540.72;5015496;28;19924;-83
2022/07/19 04:05:14;;;;;;;;;;;;;;;17.11;62.65;101543.72;5019996;28;19917;-82
2022/07/19 04:07:40;;;;;;;;;;;;;;;17.23;62.09;101539.53;5029896;28;19940;-82
2022/07/19 04:10:08;;;;;;;;;;;;;;;17.29;62.11;101545.09;5034690;28;19971;-82
2022/07/19 04:12:34;;;;;;;;;;;;;;;17.34;62.43;101533.69;5017790;28;19913;-82
2022/07/19 04:15:00;;;;;;;;;;;;;;;17.37;62.32;101533.34;5015715;28;19936;-81
2022/07/19 04:17:28;;;;;;;;;;;;;;;17.55;62.31;101540.28;5020174;28;19905;-82
2022/07/19 04:20:00;;;;;;;;;;;;;;;17.78;61.17;101534.78;5013989;28;19917;-84
2022/07/19 04:22:26;;;;;;;;;;;;;;;18.07;59.99;101545.66;5033047;28;20000;-80
2022/07/19 04:24:52;;;;;;;;;;;;;;;18.18;60.24;101543.50;5012359;28;19982;-84
2022/07/19 04:27:17;;;;;;;;;;;;;;;18.16;59.80;101545.56;5030578;28;20369;-83
2022/07/19 04:29:49;;;;;;;;;;;;;;;18.28;59.46;101547.59;5019284;28;20332;-80
2022/07/19 04:32:17;;;;;;;;;;;;;;;18.47;59.00;101545.31;5014085;28;20020;-84
2022/07/19 04:34:45;;;;;;;;;;;;;;;18.65;58.86;101544.91;5021182;28;19917;-82
2022/07/19 04:37:10;;;;;;;;;;;;;;;18.94;57.88;101549.41;5030669;28;19931;-82
2022/07/19 04:39:37;;;;;;;;;;;;;;;19.25;56.47;101549.09;5036978;28;19916;-83
2022/07/19 04:42:02;;;;;;;;;;;;;;;19.52;55.77;101547.41;5032624;28;19979;-81
2022/07/19 04:44:28;;;;;;;;;;;;;;;19.76;54.94;101539.81;5015003;28;19910;-82
2022/07/19 04:46:53;;;;;;;;;;;;;;;20.03;53.89;101546.28;5030230;28;19917;-86
2022/07/19 04:49:23;;;;;;;;;;;;;;;20.32;53.59;101547.91;5004218;28;19949;-82
2022/07/19 04:51:51;;;;;;;;;;;;;;;20.48;53.13;101543.13;5033185;28;19940;-82
2022/07/19 04:54:16;;;;;;;;;;;;;;;20.81;52.10;101544.09;5032703;28;19947;-83
2022/07/19 04:56:42;;;;;;;;;;;;;;;21.00;51.77;101550.63;5016573;28;20008;-83
2022/07/19 04:59:08;;;;;;;;;;;;;;;21.38;51.01;101539.06;5015164;28;20007;-82
2022/07/19 05:01:34;;;;;;;;;;;;;;;21.74;50.13;101548.72;5013984;28;20317;-83
2022/07/19 05:03:59;;;;;;;;;;;;;;;21.96;50.05;101538.38;5015993;28;20369;-80
2022/07/19 05:06:24;;;;;;;;;;;;;;;22.29;49.71;101543.75;5035212;28;19913;-83
2022/07/19 05:08:52;;;;;;;;;;;;;;;22.53;48.70;101542.16;5015231;28;19948;-84
2022/07/19 05:11:18;;;;;;;;;;;;;;;22.70;48.02;101541.66;5033500;28;20002;-82
2022/07/19 05:13:43;;;;;;;;;;;;;;;22.96;47.84;101541.47;5000424;28;19983;-81
2022/07/19 05:16:12;;;;;;;;;;;;;;;23.18;47.47;101549.38;4996435;28;19925;-84
2022/07/19 05:18:42;;;;;;;;;;;;;;;23.47;46.61;101544.25;5026084;28;19970;-85
2022/07/19 05:21:07;;;;;;;;;;;;;;;23.62;46.18;101542.00;5032530;28;19916;-81
2022/07/19 05:23:33;;;;;;;;;;;;;;;23.93;45.38;101543.00;5031542;28;19920;-83
2022/07/19 05:25:58;;;;;;;;;;;;;;;24.15;44.78;101535.94;4998860;28;19917;-82
2022/07/19 05:28:24;;;;;;;;;;;;;;;24.39;43.88;101549.81;5009974;28;19917;-84
2022/07/19 05:30:50;;;;;;;;;;;;;;;24.60;42.80;101552.06;4997586;28;20288;-82
2022/07/19 05:33:19;;;;;;;;;;;;;;;24.85;42.59;101553.84;5006025;28;20337;-84
2022/07/19 05:35:44;;;;;;;;;;;;;;;24.99;41.72;101549.00;5029792;28;20285;-82
2022/07/19 05:38:09;;;;;;;;;;;;;;;25.13;41.62;101544.13;5014549;28;19920;-82
2022/07/19 05:40:35;;;;;;;;;;;;;;;25.23;42.82;101545.22;5013259;28;19920;-84
2022/07/19 05:43:02;;;;;;;;;;;;;;;25.32;41.86;101547.66;5001764;28;19913;-84
2022/07/19 05:45:31;;;;;;;;;;;;;;;25.56;41.25;101537.47;5038512;28;20004;-83
2022/07/19 05:47:56;;;;;;;;;;;;;;;25.82;40.54;101536.97;5026459;28;19913;-84
2022/07/19 05:50:22;;;;;;;;;;;;;;;26.11;40.21;101534.34;5010931;28;20292;-84
2022/07/19 05:52:52;;;;;;;;;;;;;;;26.37;39.79;101532.09;5028875;28;19924;-83
2022/07/19 05:55:22;;;;;;;;;;;;;;;26.69;39.04;101525.03;4992090;28;19921;-85
2022/07/19 05:57:48;;;;;;;;;;;;;;;27.00;38.26;101535.78;5022880;28;19909;-85
2022/07/19 06:00:14;;;;;;;;;;;;;;;27.25;37.19;101533.44;5020981;28;19963;-82
2022/07/19 06:02:40;;;;;;;;;;;;;;;27.38;37.24;101537.81;5006086;28;19959;-86
2022/07/19 06:05:09;;;;;;;;;;;;;;;27.13;37.05;101536.25;5006651;28;19917;-85
2022/07/19 06:07:35;;;;;;;;;;;;;;;27.27;36.60;101539.56;5033534;28;19913;-84
2022/07/19 06:10:01;;;;;;;;;;;;;;;27.41;37.04;101537.28;5020267;28;20012;-82
2022/07/19 06:12:28;;;;;;;;;;;;;;;27.72;35.96;101533.06;5028364;28;19925;-83
2022/07/19 06:14:55;;;;;;;;;;;;;;;27.70;35.00;101524.19;5010403;28;19917;-83
2022/07/19 06:17:20;;;;;;;;;;;;;;;27.96;35.10;101535.63;4992994;28;20243;-85
2022/07/19 06:19:53;;;;;;;;;;;;;;;28.05;35.09;101530.47;5012542;28;19998;-83
2022/07/19 06:22:19;;;;;;;;;;;;;;;27.82;34.46;101543.44;5026770;28;19918;-82
2022/07/19 06:24:44;;;;;;;;;;;;;;;27.90;34.35;101540.25;5033857;28;19913;-81
2022/07/19 06:27:09;;;;;;;;;;;;;;;27.78;33.87;101536.72;5010888;28;19913;-77
2022/07/19 06:29:34;;;;;;;;;;;;;;;27.93;33.73;101525.94;5036342;28;19931;-78
2022/07/19 06:32:00;;;;;;;;;;;;;;;28.07;33.66;101537.41;5012930;28;20003;-79
2022/07/19 06:34:25;;;;;;;;;;;;;;;28.23;32.42;101532.91;5038427;28;20292;-78
2022/07/19 06:36:50;;;;;;;;;;;;;;;28.23;28.07;101527.38;5029280;28;20373;-80
2022/07/19 06:39:16;;;;;;;;;;;;;;;28.25;28.29;101530.72;5014747;28;19936;-79
2022/07/19 06:41:42;;;;;;;;;;;;;;;28.52;28.74;101529.97;5024370;28;19967;-80
2022/07/19 06:44:08;;;;;;;;;;;;;;;28.63;27.83;101528.97;5012476;28;20293;-80
2022/07/19 06:46:35;;;;;;;;;;;;;;;28.87;27.79;101531.41;5015322;28;19915;-80
2022/07/19 06:49:01;;;;;;;;;;;;;;;28.92;28.03;101531.47;5034814;28;19912;-79
2022/07/19 06:51:27;;;;;;;;;;;;;;;29.04;27.28;101529.34;5011711;28;19913;-81
2022/07/19 06:53:53;;;;;;;;;;;;;;;29.02;27.08;101523.25;5010093;28;19925;-81
2022/07/19 06:56:19;;;;;;;;;;;;;;;28.94;27.13;101527.34;5008618;28;19970;-83
2022/07/19 06:58:45;;;;;;;;;;;;;;;28.93;26.02;101538.66;5026123;28;20007;-81
2022/07/19 07:01:11;;;;;;;;;;;;;;;28.86;26.71;101529.75;5014210;28;19963;-79
2022/07/19 07:03:38;;;;;;;;;;;;;;;29.11;27.51;101535.53;5022878;28;19929;-81
2022/07/19 07:06:03;;;;;;;;;;;;;;;29.32;26.90;101533.75;5003442;28;20008;-82
2022/07/19 07:08:30;;;;;;;;;;;;;;;29.37;27.78;101536.56;5022785;28;20059;-83
2022/07/19 07:10:57;;;;;;;;;;;;;;;29.48;27.60;101542.16;5016824;28;20030;-81
2022/07/19 07:13:23;;;;;;;;;;;;;;;29.56;25.70;101545.28;5001423;28;19925;-83
2022/07/19 07:15:48;;;;;;;;;;;;;;;29.89;26.43;101537.75;5016153;28;19912;-82
2022/07/19 07:18:15;;;;;;;;;;;;;;;30.18;23.27;101540.06;5026486;28;19984;-82
2022/07/19 07:20:40;;;;;;;;;;;;;;;30.05;23.69;101545.03;5014905;28;20301;-81
2022/07/19 07:23:05;;;;;;;;;;;;;;;30.25;23.34;101540.66;5024001;28;19913;-85
2022/07/19 07:25:33;;;;;;;;;;;;;;;30.53;23.25;101542.16;5018142;28;19913;-87
2022/07/19 07:28:00;;;;;;;;;;;;;;;30.62;23.64;101539.69;5032016;28;19913;-81
2022/07/19 07:30:28;;;;;;;;;;;;;;;31.02;23.50;101549.19;5037424;28;19924;-80
2022/07/19 07:32:54;;;;;;;;;;;;;;;31.33;23.23;101539.75;5014181;28;19920;-82
2022/07/19 07:35:20;;;;;;;;;;;;;;;31.52;22.61;101542.81;5017549;28;19963;-81
2022/07/19 07:37:45;;;;;;;;;;;;;;;31.61;22.38;101548.66;4995240;28;19913;-83
2022/07/19 07:40:11;;;;;;;;;;;;;;;31.68;22.41;101545.56;5037468;28;19916;-80
2022/07/19 07:42:37;;;;;;;;;;;;;;;31.60;22.57;101544.19;5033629;28;20456;-79
2022/07/19 07:45:04;;;;;;;;;;;;;;;31.47;23.17;101542.00;5021051;28;19917;-81
2022/07/19 07:47:29;;;;;;;;;;;;;;;31.51;22.83;101537.53;5024242;28;19909;-82
2022/07/19 07:49:56;;;;;;;;;;;;;;;30.83;23.07;101541.38;5024051;28;19962;-82
2022/07/19 07:52:22;;;;;;;;;;;;;;;30.45;24.20;101540.75;5014863;28;20316;-84
2022/07/19 07:54:48;;;;;;;;;;;;;;;29.99;24.79;101537.81;5017738;28;19913;-81
2022/07/19 07:57:17;;;;;;;;;;;;;;;29.78;25.47;101542.41;5015951;28;19962;-79
2022/07/19 07:59:42;;;;;;;;;;;;;;;29.54;25.91;101539.16;5035421;28;20007;-79
2022/07/19 08:02:07;;;;;;;;;;;;;;;28.91;27.21;101549.16;5030441;28;20057;-83
2022/07/19 08:04:35;;;;;;;;;;;;;;;28.90;27.26;101536.44;5035853;28;19912;-81
2022/07/19 08:07:01;;;;;;;;;;;;;;;29.14;27.82;101532.22;5029773;28;19916;-82
2022/07/19 08:09:29;;;;;;;;;;;;;;;29.31;27.17;101545.09;5036584;28;20397;-80
2022/07/19 08:11:54;;;;;;;;;;;;;;;29.41;27.25;101536.88;5030062;28;19916;-81
2022/07/19 08:14:20;;;;;;;;;;;;;;;29.59;26.56;101541.13;5035265;28;19913;-81
2022/07/19 08:16:45;;;;;;;;;;;;;;;29.93;26.23;101538.88;5018449;28;20075;-83
2022/07/19 08:19:10;;;;;;;;;;;;;;;30.12;26.28;101541.19;5016863;28;19990;-78
2022/07/19 08:21:36;;;;;;;;;;;;;;;30.33;25.76;101537.41;5017627;28;20283;-80
2022/07/19 08:24:01;;;;;;;;;;;;;;;30.38;26.38;101545.72;5001368;28;20363;-81
2022/07/19 08:26:30;;;;;;;;;;;;;;;30.23;26.89;101537.34;5015528;28;20328;-82
2022/07/19 08:28:58;;;;;;;;;;;;;;;29.80;26.64;101542.13;5020556;28;19917;-81
2022/07/19 08:31:28;;;;;;;;;;;;;;;30.33;26.98;101540.19;5037576;28;19909;-80
2022/07/19 08:33:53;;;;;;;;;;;;;;;30.22;27.11;101542.03;5032984;28;20299;-79
2022/07/19 08:36:19;;;;;;;;;;;;;;;30.40;27.50;101542.69;5020565;28;20476;-80
2022/07/19 08:38:49;;;;;;;;;;;;;;;30.82;26.37;101533.34;5028765;28;19917;-88
2022/07/19 08:41:16;;;;;;;;;;;;;;;31.01;25.04;101542.81;5031004;28;19970;-85
2022/07/19 08:43:43;;;;;;;;;;;;;;;31.47;24.48;101533.66;5023722;28;19961;-79
2022/07/19 08:46:08;;;;;;;;;;;;;;;31.30;24.74;101533.91;5030076;28;19916;-80
2022/07/19 08:48:34;;;;;;;;;;;;;;;31.11;24.92;101536.44;5015220;28;19978;-84
2022/07/19 08:51:02;;;;;;;;;;;;;;;31.49;25.28;101531.41;5034137;28;19931;-85
2022/07/19 08:53:31;;;;;;;;;;;;;;;31.65;24.37;101535.00;5030877;28;19971;-83
2022/07/19 08:55:59;;;;;;;;;;;;;;;31.85;24.53;101532.19;5030871;28;19913;-85
2022/07/19 08:58:24;;;;;;;;;;;;;;;31.87;24.44;101531.91;5029465;28;20023;-82
2022/07/19 09:00:50;;;;;;;;;;;;;;;32.02;24.95;101531.84;5031810;28;19925;-86
2022/07/19 09:03:16;;;;;;;;;;;;;;;32.68;24.39;101535.41;4995019;28;19913;-83
2022/07/19 09:05:42;;;;;;;;;;;;;;;32.82;24.06;101528.06;5022838;28;20035;-85
2022/07/19 09:08:19;;;;;;;;;;;;;;;32.42;23.86;101535.56;5017697;28;19967;-82
2022/07/19 09:11:14;;;;;;;;;;;;;;;32.90;24.13;101532.22;5013714;28;19913;-84
2022/07/19 09:13:33;;;;;;;;;;;;;;;33.21;23.70;101521.66;5025200;28;20509;-85
2022/07/19 09:15:59;;;;;;;;;;;;;;;33.68;22.84;101531.25;4992114;28;19913;-83
2022/07/19 09:18:32;;;;;;;;;;;;;;;33.85;22.82;101526.00;4997813;28;19909;-85
2022/07/19 09:20:58;;;;;;;;;;;;;;;34.39;22.38;101517.53;4987488;28;19913;-81
2022/07/19 09:23:24;;;;;;;;;;;;;;;34.95;22.01;101524.22;5014884;28;19909;-80
2022/07/19 09:25:52;;;;;;;;;;;;;;;35.00;22.19;101527.75;5005431;28;19913;-83
2022/07/19 09:28:19;;;;;;;;;;;;;;;34.36;23.16;101518.13;5011195;28;19916;-80
2022/07/19 09:30:47;;;;;;;;;;;;;;;33.45;23.38;101526.44;5030683;28;19924;-81
2022/07/19 09:33:13;;;;;;;;;;;;;;;33.95;23.17;101524.22;4994748;28;20436;-86
2022/07/19 09:35:41;;;;;;;;;;;;;;;34.86;22.23;101526.88;5016187;28;19936;-82
2022/07/19 09:38:22;;;;;;;;;;;;;;;35.72;21.81;101521.72;5029729;28;19994;-84
2022/07/19 09:40:48;;;;;;;;;;;;;;;34.62;22.63;101527.81;5037000;28;19917;-84
2022/07/19 09:43:16;;;;;;;;;;;;;;;35.60;21.84;101528.97;5032188;28;19999;-83
2022/07/19 09:45:44;;;;;;;;;;;;;;;35.64;22.35;101525.28;5013875;28;19912;-87
2022/07/19 09:48:11;;;;;;;;;;;;;;;35.61;22.43;101528.66;5031326;28;20222;-83
2022/07/19 09:50:40;;;;;;;;;;;;;;;35.77;22.51;101528.38;5018254;28;19921;-86
2022/07/19 09:53:09;;;;;;;;;;;;;;;36.85;21.18;101524.03;5030638;28;19913;-83
2022/07/19 09:55:37;;;;;;;;;;;;;;;38.12;20.40;101532.94;5014440;28;19913;-84
2022/07/19 09:58:03;;;;;;;;;;;;;;;37.94;20.02;101524.47;4988173;28;19920;-82
2022/07/19 10:00:29;;;;;;;;;;;;;;;39.00;19.54;101523.44;5016844;28;20427;-82
2022/07/19 10:02:56;;;;;;;;;;;;;;;39.74;18.89;101518.59;5008478;28;19944;-81
2022/07/19 10:05:26;;;;;;;;;;;;;;;38.64;20.44;101516.19;5026107;28;19915;-81
2022/07/19 10:07:51;;;;;;;;;;;;;;;37.95;20.06;101522.47;5009840;28;19913;-81
2022/07/19 10:10:17;;;;;;;;;;;;;;;37.46;20.81;101525.25;5012293;28;19967;-80
2022/07/19 10:12:44;;;;;;;;;;;;;;;37.20;20.71;101513.91;5029363;28;19912;-78
2022/07/19 10:15:12;;;;;;;;;;;;;;;36.81;21.23;101512.66;5016873;28;19948;-78
2022/07/19 10:17:37;;;;;;;;;;;;;;;37.18;21.26;101511.44;5032578;28;19913;-79
2022/07/19 10:20:06;;;;;;;;;;;;;;;36.06;22.29;101514.06;5035793;28;19913;-79
2022/07/19 10:22:32;;;;;;;;;;;;;;;36.06;22.42;101508.47;5030696;28;19909;-79
2022/07/19 10:25:03;;;;;;;;;;;;;;;36.73;22.61;101505.81;5041916;28;20262;-79
2022/07/19 10:27:29;;;;;;;;;;;;;;;38.35;21.19;101514.84;5012835;28;19953;-79
2022/07/19 10:29:55;;;;;;;;;;;;;;;37.92;21.23;101512.75;5031216;28;19916;-79
2022/07/19 10:32:20;;;;;;;;;;;;;;;37.46;21.21;101510.41;5026342;28;19913;-83
2022/07/19 10:34:46;;;;;;;;;;;;;;;37.74;20.45;101508.22;5009071;28;19946;-78
2022/07/19 10:37:15;;;;;;;;;;;;;;;37.63;20.84;101507.72;5029758;28;19912;-79
2022/07/19 10:39:40;;;;;;;;;;;;;;;35.65;24.20;101503.72;5016658;28;19924;-79
2022/07/19 10:42:20;;;;;;;;;;;;;;;35.36;24.93;101501.19;5024164;28;19909;-79
2022/07/19 10:44:59;;;;;;;;;;;;;;;36.05;24.24;101506.78;5037169;28;19919;-79
2022/07/19 10:47:37;;;;;;;;;;;;;;;36.10;23.37;101495.50;5037239;28;19948;-80
2022/07/19 10:50:04;;;;;;;;;;;;;;;36.62;23.51;101492.38;5031514;28;19909;-78
2022/07/19 10:52:29;;;;;;;;;;;;;;;37.13;22.55;101497.53;5025248;28;19909;-79
2022/07/19 10:55:15;;;;;;;;;;;;;;;35.57;24.39;101493.25;5037552;28;19917;-79
2022/07/19 10:57:40;;;;;;;;;;;;;;;35.92;24.81;101492.53;5016583;28;19959;-78
2022/07/19 11:00:19;;;;;;;;;;;;;;;36.52;24.06;101491.44;5018350;28;19920;-77
2022/07/19 11:02:45;;;;;;;;;;;;;;;33.25;28.59;101483.75;5010746;28;20059;-77
2022/07/19 11:05:36;;;;;;;;;;;;;;;33.49;27.85;101494.09;5041563;28;20754;-80
2022/07/19 11:08:02;;;;;;;;;;;;;;;32.50;28.98;101489.56;5016613;28;19909;-78
2022/07/19 11:10:29;;;;;;;;;;;;;;;32.07;30.61;101487.34;5019459;28;19913;-78
2022/07/19 11:12:55;;;;;;;;;;;;;;;31.98;31.08;101479.88;5034375;28;19916;-80
2022/07/19 11:15:20;;;;;;;;;;;;;;;31.51;31.42;101485.56;5018538;28;20023;-79
2022/07/19 11:17:59;;;;;;;;;;;;;;;31.55;31.04;101485.84;5036435;28;19917;-78
2022/07/19 11:20:25;;;;;;;;;;;;;;;31.69;29.80;101473.00;5018226;28;20395;-79
2022/07/19 11:22:51;;;;;;;;;;;;;;;31.82;29.86;101473.50;5028537;28;20338;-84
2022/07/19 11:25:24;;;;;;;;;;;;;;;32.06;29.50;101474.56;5020970;28;19920;-80
2022/07/19 11:27:50;;;;;;;;;;;;;;;32.43;29.19;101476.00;5025432;28;19909;-80
2022/07/19 11:30:19;;;;;;;;;;;;;;;31.94;29.53;101474.03;5021095;28;19917;-80
2022/07/19 11:32:50;;;;;;;;;;;;;;;30.98;30.53;101478.69;5005785;28;19940;-79
2022/07/19 11:35:22;;;;;;;;;;;;;;;30.54;31.78;101479.19;5038095;28;19983;-81
2022/07/19 11:37:47;;;;;;;;;;;;;;;29.94;33.01;101468.47;4998046;28;20038;-80
2022/07/19 11:40:13;;;;;;;;;;;;;;;30.09;32.72;101471.31;5012379;28;20372;-79
2022/07/19 11:42:39;;;;;;;;;;;;;;;30.05;33.52;101470.16;5034209;28;20004;-80
2022/07/19 11:45:09;;;;;;;;;;;;;;;30.18;33.98;101463.28;5019861;28;19909;-79
2022/07/19 11:47:35;;;;;;;;;;;;;;;29.99;34.25;101457.41;5007478;28;19922;-79
2022/07/19 11:50:04;;;;;;;;;;;;;;;29.60;35.38;101468.84;5011449;28;19913;-84
2022/07/19 11:52:40;;;;;;;;;;;;;;;29.45;36.38;101466.84;5027376;28;19913;-83
2022/07/19 11:55:06;;;;;;;;;;;;;;;29.43;36.73;101462.63;5032031;28;19920;-81
2022/07/19 11:57:32;;;;;;;;;;;;;;;29.55;35.92;101460.53;5015537;28;19917;-84
2022/07/19 11:59:57;;;;;;;;;;;;;;;29.15;36.62;101469.38;5038700;28;20003;-82
2022/07/19 12:02:22;;;;;;;;;;;;;;;29.43;35.88;101459.88;5033997;28;19912;-84
2022/07/19 12:04:50;;;;;;;;;;;;;;;29.32;34.76;101460.94;5024687;28;19920;-83
2022/07/19 12:07:16;;;;;;;;;;;;;;;29.38;34.34;101466.22;5036207;28;20361;-85
2022/07/19 12:09:44;;;;;;;;;;;;;;;29.43;35.09;101457.97;5017314;28;19917;-83
2022/07/19 12:12:13;;;;;;;;;;;;;;;29.10;35.74;101469.34;5017415;28;19932;-84
2022/07/19 12:14:40;;;;;;;;;;;;;;;28.87;36.29;101459.44;5016026;28;19913;-83
2022/07/19 12:17:12;;;;;;;;;;;;;;;28.69;37.38;101467.06;5021717;28;19905;-82
2022/07/19 12:19:39;;;;;;;;;;;;;;;28.17;38.23;101451.88;5017230;28;20336;-82
2022/07/19 12:22:04;;;;;;;;;;;;;;;28.29;37.75;101454.47;5029345;28;19970;-83
2022/07/19 12:24:30;;;;;;;;;;;;;;;28.06;36.69;101449.25;5036350;28;19912;-80
2022/07/19 12:27:03;;;;;;;;;;;;;;;27.86;37.51;101450.69;5017838;28;20265;-86
2022/07/19 12:29:33;;;;;;;;;;;;;;;28.02;39.24;101448.91;5006126;28;19929;-87
2022/07/19 12:32:03;;;;;;;;;;;;;;;28.18;37.84;101452.69;5018369;28;19947;-82
2022/07/19 12:34:29;;;;;;;;;;;;;;;27.88;38.48;101448.47;5039232;28;20019;-81